METAR Data
IDs: Format: Raw Decoded Include TAF

Data at: 1143 UTC 16 Oct 2018

PARS 161056Z AUTO 05008KT 10SM OVC019 03/01 A2913 RMK AO2 SLP869 T00330011 $
PARS 161024Z AUTO 04007KT 10SM BKN019 03/01 A2913 RMK AO2 $
PARS 160956Z AUTO 04008KT 10SM SCT019 03/01 A2913 RMK AO2 SLP868 T00330011 $
PARS 160856Z AUTO 05007KT 10SM CLR 03/01 A2913 RMK AO2 SLP870 T00330011 58006 $
PARS 160756Z AUTO 04009KT 10SM CLR 03/01 A2914 RMK AO2 SLP873 T00330011 400780033 $
PARS 160656Z AUTO 05011KT 10SM CLR 04/02 A2914 RMK AO2 SLP874 T00390017 $
PARS 160556Z AUTO 05009KT 10SM SCT065 SCT080 04/02 A2915 RMK AO2 RAB0459E19 SLP876 P0000 60000 T00390022 10044 20039 56012 $
PARS 160456Z AUTO 05009G15KT 10SM FEW046 OVC065 04/03 A2916 RMK AO2 SLP880 T00440028 $
PARS 160414Z AUTO 04011KT 10SM FEW010 OVC060 04/03 A2917 RMK AO2 $
PARS 160356Z AUTO 04011G16KT 10SM BKN010 BKN038 OVC075 04/03 A2917 RMK AO2 RAB19E51 SLP884 P0000 T00390028 $
PARS 160256Z AUTO 05008G16KT 10SM FEW036 OVC065 04/03 A2919 RMK AO2 RAB43E55 SLP888 P0000 60000 T00440028 56021 $
PARS 160156Z AUTO 05011G20KT 10SM OVC075 04/02 A2920 RMK AO2 RAB0059E11 SLP891 P0000 T00440022 $
PARS 160056Z AUTO 04012G17KT 10SM FEW012 SCT070 OVC090 04/03 A2921 RMK AO2 RAE48 SLP895 P0000 T00440028 $
PARS 152356Z AUTO 05010G16KT 10SM -RA BKN040 OVC050 04/02 A2925 RMK AO2 SLP909 P0000 60000 T00390022 10039 20033 58021 $
PARS 152256Z AUTO 06010G17KT 10SM -RA OVC040 04/02 A2928 RMK AO2 SLP919 P0000 T00390022 $
PARS 152156Z AUTO 05009G17KT 10SM -RA OVC050 04/02 A2930 RMK AO2 SLP925 P0000 T00390022 $
PARS 151956Z AUTO 06012G18KT 10SM -RA SCT042 BKN055 OVC070 03/02 A2933 RMK AO2 RAB19 SLP937 P0000 T00330022 $
PARS 151856Z AUTO 05009KT 10SM OVC044 03/02 A2934 RMK AO2 RAE41 SLP939 P0000 T00330022 $
PARS 151756Z AUTO 06011G19KT 10SM -RA FEW043 BKN060 OVC075 04/02 A2935 RMK AO2 SLP944 P0000 6//// T00390017 10056 20033 58013 $
PARS 151656Z AUTO 05010G16KT 10SM -RA OVC040 03/02 A2936 RMK AO2 SLP946 T00330017 $
PARS 151556Z AUTO 05007KT 10SM RA OVC040 03/02 A2939 RMK AO2 SLP956 T00330017 $
PARS 151456Z AUTO 06011G17KT 10SM -RA BKN044 OVC065 04/01 A2939 RMK AO2 RAB41 SLP957 P0000 60000 T00440006 56021 $
PARS 151356Z AUTO 05009G15KT 10SM FEW049 SCT065 OVC080 05/01 A2940 RMK AO2 RAB37E55 SLP961 P0000 T00500006 $
PARS 151256Z AUTO 05011G16KT 10SM FEW042 SCT060 BKN110 06/00 A2942 RMK AO2 SLP967 T00560000 $
PARS 151156Z AUTO 04011KT 10SM OVC055 06/00 A2945 RMK AO2 SLP978 T00560000 10078 20056 58020 $
PARS 151056Z AUTO 05011G16KT 10SM OVC050 06/00 A2948 RMK AO2 SLP987 T00560000 $
PARS 150956Z AUTO 04009G15KT 10SM BKN065 BKN085 06/00 A2949 RMK AO2 SLP990 T00610000 $
PARS 150856Z AUTO 05008G17KT 10SM OVC050 07/00 A2951 RMK AO2 SLP998 T00670000 58013 $
PARS 150756Z AUTO 06009G15KT 10SM OVC050 08/01 A2953 RMK AO2 SLP004 T00780006 400890033 $
PARS 150656Z AUTO 06008G15KT 10SM OVC049 08/02 A2954 RMK AO2 SLP007 T00780017 $
PARS 150556Z AUTO 06009KT 10SM SCT047 08/01 A2955 RMK AO2 SLP011 T00780011 10089 20078 56005 $
PARS 150456Z AUTO 07009G18KT 10SM OVC047 08/02 A2956 RMK AO2 SLP013 T00830017 $
PARS 150356Z AUTO 05007KT 10SM OVC045 08/03 A2955 RMK AO2 SLP012 T00780033 $
PARS 150256Z AUTO 06007KT 10SM OVC042 08/03 A2956 RMK AO2 SLP016 T00830033 56017 $
PARS 150156Z AUTO 06007KT 10SM BKN044 08/04 A2958 RMK AO2 SLP021 T00830039 $
PARS 150056Z AUTO 07007G14KT 10SM CLR 09/03 A2960 RMK AO2 SLP026 T00890033 $
PARS 142356Z AUTO 07009G15KT 10SM SCT085 09/03 A2961 RMK AO2 SLP032 T00890033 10089 20039 58011 $